Meteo Giornale » Osservazioni meteo Stati Uniti (USA) » Oroville
ore: 04:53 - Osservazioni Meteo Oroville
Lat. 39° 29' N Lon. 121° 37' W Alt. 57 metri s.l.m.
15 °C
Sereno
Temp. 24 Ore
15 °C
28 °C
Sud/Sud-Est
18.5 Km/h
Dew point 11 °C
Umidità 76 %
Visibilità 10 Km
Il sole sorge alle ore 06:35
Il sole tramonta alle ore 19:37
| Data e Ora | Cielo e Fenomeni | T °C | DP °C | Um. % | Pres. hPa | Vis. km | Vento km/h | |
|---|---|---|---|---|---|---|---|---|
| Oggi h: 04:53 | Sereno | 15 | 11 | 76 | 1013 | 10 | S/SE 18.5 | |
| Oggi h: 03:53 | Sereno | 15 | 11 | 76 | 1013 | 10 | S/SE 22.2 | |
| Oggi h: 02:53 | Sereno | 16 | 11 | 72 | 1012 | 10 | S/SE 33.3 | |
| Oggi h: 01:53 | Sereno | 16 | 11 | 72 | 1012 | 10 | S/SE 25.9 | |
| Oggi h: 00:53 | Sereno | 16 | 11 | 72 | 1012 | 10 | SE 22.2 | |
| Ieri h: 23:53 | Sereno | 17 | 12 | 72 | 1012 | 10 | S/SE 27.8 | |
| Ieri h: 22:53 | Sereno | 18 | 12 | 67 | 1011 | 10 | S 24 | |
| Ieri h: 21:53 | Sereno | 19 | 12 | 63 | 1011 | 10 | S/SE 24 | |
| Ieri h: 20:53 | Sereno | 21 | 11 | 52 | 1010 | 10 | S/SE 29.6 | |
| Ieri h: 19:53 | Sereno | 22 | 11 | 49 | 1009 | 10 | S/SE 24 | |
| Ieri h: 18:53 | Sereno | 24 | 12 | 47 | 1009 | 10 | S/SE 25.9 | |
| Ieri h: 17:53 | Poco Nuvoloso | 26 | 12 | 41 | 1009 | 10 | S/SE 25.9 | |
| Ieri h: 16:53 | Sereno | 28 | 11 | 34 | 1009 | 10 | S/SE 24 | |
| Ieri h: 15:53 | Sereno | 27 | 11 | 36 | 1010 | 10 | S 24 | |
| Ieri h: 14:53 | Sereno | 27 | 11 | 36 | 1011 | 10 | S/SE 24 | |
| Ieri h: 13:53 | Sereno | 24 | 12 | 47 | 1011 | 10 | S 16.7 | |
| Ieri h: 12:53 | Sereno | 24 | 12 | 47 | 1012 | 10 | S 11.1 | |
| Ieri h: 11:53 | Sereno | 24 | 11 | 43 | 1012 | 10 | N 11.1 | |
| Ieri h: 10:53 | Sereno | 24 | 11 | 43 | 1012 | 10 | S/SE 14.8 | |
| Ieri h: 09:53 | Sereno | 22 | 9 | 43 | 1012 | 10 | S 11.1 | |
| Ieri h: 08:53 | Sereno | 19 | 10 | 55 | 1012 | 10 | N 0 | |
| Ieri h: 07:53 | Sereno | 17 | 11 | 67 | 1012 | 10 | S 7.4 | |
| Ieri h: 06:53 | Sereno | 16 | 11 | 72 | 1011 | 10 | N 0 | |
| Ieri h: 05:53 | Sereno | 16 | 11 | 72 | 1010 | 10 | N 0 | |



